sensor_id;sensor_type;location;lat;lon;timestamp;temperature;humidity
21216;DHT22;10765;50.954;5.322;2023-07-02T00:01:44;16.60;99.90
21216;DHT22;10765;50.954;5.322;2023-07-02T00:04:12;16.60;99.90
21216;DHT22;10765;50.954;5.322;2023-07-02T00:06:43;16.60;99.90
21216;DHT22;10765;50.954;5.322;2023-07-02T00:09:10;16.60;99.90
21216;DHT22;10765;50.954;5.322;2023-07-02T00:11:38;16.50;99.90
21216;DHT22;10765;50.954;5.322;2023-07-02T00:14:05;16.50;99.90
21216;DHT22;10765;50.954;5.322;2023-07-02T00:16:32;16.40;99.90
21216;DHT22;10765;50.954;5.322;2023-07-02T00:18:59;16.40;99.90
21216;DHT22;10765;50.954;5.322;2023-07-02T00:21:27;16.30;99.90
21216;DHT22;10765;50.954;5.322;2023-07-02T00:23:55;16.30;99.90
21216;DHT22;10765;50.954;5.322;2023-07-02T00:26:23;16.30;99.90
21216;DHT22;10765;50.954;5.322;2023-07-02T00:28:50;16.20;99.90
21216;DHT22;10765;50.954;5.322;2023-07-02T00:31:17;16.20;99.90
21216;DHT22;10765;50.954;5.322;2023-07-02T00:33:44;16.20;99.90
21216;DHT22;10765;50.954;5.322;2023-07-02T00:36:12;16.20;99.90
21216;DHT22;10765;50.954;5.322;2023-07-02T00:38:41;16.20;99.90
21216;DHT22;10765;50.954;5.322;2023-07-02T00:41:11;16.10;99.90
21216;DHT22;10765;50.954;5.322;2023-07-02T00:43:38;16.10;99.90
21216;DHT22;10765;50.954;5.322;2023-07-02T00:46:09;16.00;99.90
21216;DHT22;10765;50.954;5.322;2023-07-02T00:48:38;16.00;1.00
21216;DHT22;10765;50.954;5.322;2023-07-02T00:51:06;16.00;1.00
21216;DHT22;10765;50.954;5.322;2023-07-02T00:53:33;16.10;99.90
21216;DHT22;10765;50.954;5.322;2023-07-02T00:56:00;16.10;99.90
21216;DHT22;10765;50.954;5.322;2023-07-02T00:58:28;16.10;99.90
21216;DHT22;10765;50.954;5.322;2023-07-02T01:00:55;16.10;99.90
21216;DHT22;10765;50.954;5.322;2023-07-02T01:03:22;16.20;99.90
21216;DHT22;10765;50.954;5.322;2023-07-02T01:05:49;16.10;99.90
21216;DHT22;10765;50.954;5.322;2023-07-02T01:08:16;16.10;99.90
21216;DHT22;10765;50.954;5.322;2023-07-02T01:10:43;16.10;99.90
21216;DHT22;10765;50.954;5.322;2023-07-02T01:13:14;16.10;99.90
21216;DHT22;10765;50.954;5.322;2023-07-02T01:15:44;16.20;99.90
21216;DHT22;10765;50.954;5.322;2023-07-02T01:18:12;16.10;99.90
21216;DHT22;10765;50.954;5.322;2023-07-02T01:20:42;16.10;99.90
21216;DHT22;10765;50.954;5.322;2023-07-02T01:23:09;16.20;99.90
21216;DHT22;10765;50.954;5.322;2023-07-02T01:25:36;16.10;99.90
21216;DHT22;10765;50.954;5.322;2023-07-02T01:28:04;16.10;99.90
21216;DHT22;10765;50.954;5.322;2023-07-02T01:30:31;16.10;99.90
21216;DHT22;10765;50.954;5.322;2023-07-02T01:32:57;16.10;99.90
21216;DHT22;10765;50.954;5.322;2023-07-02T01:35:24;16.10;99.90
21216;DHT22;10765;50.954;5.322;2023-07-02T01:37:53;16.10;99.90
21216;DHT22;10765;50.954;5.322;2023-07-02T01:40:20;16.10;99.90
21216;DHT22;10765;50.954;5.322;2023-07-02T01:42:47;16.10;99.90
21216;DHT22;10765;50.954;5.322;2023-07-02T01:45:13;16.10;99.90
21216;DHT22;10765;50.954;5.322;2023-07-02T01:47:40;16.10;99.90
21216;DHT22;10765;50.954;5.322;2023-07-02T01:50:08;16.10;99.90
21216;DHT22;10765;50.954;5.322;2023-07-02T01:52:35;16.00;1.00
21216;DHT22;10765;50.954;5.322;2023-07-02T01:55:04;16.00;99.90
21216;DHT22;10765;50.954;5.322;2023-07-02T01:57:31;16.00;1.00
21216;DHT22;10765;50.954;5.322;2023-07-02T01:59:57;16.00;1.00
21216;DHT22;10765;50.954;5.322;2023-07-02T02:02:24;15.90;1.00
21216;DHT22;10765;50.954;5.322;2023-07-02T02:04:51;15.80;1.00
21216;DHT22;10765;50.954;5.322;2023-07-02T02:07:18;15.90;1.00
21216;DHT22;10765;50.954;5.322;2023-07-02T02:09:45;15.90;1.00
21216;DHT22;10765;50.954;5.322;2023-07-02T02:12:13;15.90;1.00
21216;DHT22;10765;50.954;5.322;2023-07-02T02:14:40;16.00;1.00
21216;DHT22;10765;50.954;5.322;2023-07-02T02:17:08;16.00;1.00
21216;DHT22;10765;50.954;5.322;2023-07-02T02:19:34;16.00;1.00
21216;DHT22;10765;50.954;5.322;2023-07-02T02:22:01;16.00;1.00
21216;DHT22;10765;50.954;5.322;2023-07-02T02:24:28;16.00;1.00
21216;DHT22;10765;50.954;5.322;2023-07-02T02:26:55;16.00;1.00
21216;DHT22;10765;50.954;5.322;2023-07-02T02:29:23;16.00;1.00
21216;DHT22;10765;50.954;5.322;2023-07-02T02:31:50;16.10;1.00
21216;DHT22;10765;50.954;5.322;2023-07-02T02:34:17;16.00;1.00
21216;DHT22;10765;50.954;5.322;2023-07-02T02:36:44;16.00;1.00
21216;DHT22;10765;50.954;5.322;2023-07-02T02:39:12;16.00;1.00
21216;DHT22;10765;50.954;5.322;2023-07-02T02:41:39;16.00;1.00
21216;DHT22;10765;50.954;5.322;2023-07-02T02:44:06;16.00;1.00
21216;DHT22;10765;50.954;5.322;2023-07-02T02:46:34;16.10;1.00
21216;DHT22;10765;50.954;5.322;2023-07-02T02:49:01;16.00;1.00
21216;DHT22;10765;50.954;5.322;2023-07-02T02:51:28;15.90;1.00
21216;DHT22;10765;50.954;5.322;2023-07-02T02:53:55;15.90;1.00
21216;DHT22;10765;50.954;5.322;2023-07-02T02:56:22;15.90;1.00
21216;DHT22;10765;50.954;5.322;2023-07-02T02:58:49;15.80;1.00
21216;DHT22;10765;50.954;5.322;2023-07-02T03:01:16;15.80;1.00
21216;DHT22;10765;50.954;5.322;2023-07-02T03:03:45;15.80;21.90
21216;DHT22;10765;50.954;5.322;2023-07-02T03:06:13;15.80;99.90
21216;DHT22;10765;50.954;5.322;2023-07-02T03:08:40;15.80;99.90
21216;DHT22;10765;50.954;5.322;2023-07-02T03:11:07;15.80;99.90
21216;DHT22;10765;50.954;5.322;2023-07-02T03:13:34;15.70;99.90
21216;DHT22;10765;50.954;5.322;2023-07-02T03:16:02;15.70;99.90
21216;DHT22;10765;50.954;5.322;2023-07-02T03:18:29;15.70;99.90
21216;DHT22;10765;50.954;5.322;2023-07-02T03:20:59;15.60;1.00
21216;DHT22;10765;50.954;5.322;2023-07-02T03:23:26;15.50;1.00
21216;DHT22;10765;50.954;5.322;2023-07-02T03:25:53;15.50;1.00
21216;DHT22;10765;50.954;5.322;2023-07-02T03:28:20;15.50;1.00
21216;DHT22;10765;50.954;5.322;2023-07-02T03:30:46;15.50;99.90
21216;DHT22;10765;50.954;5.322;2023-07-02T03:33:13;15.40;99.90
21216;DHT22;10765;50.954;5.322;2023-07-02T03:35:40;15.50;99.90
21216;DHT22;10765;50.954;5.322;2023-07-02T03:38:09;15.50;99.90
21216;DHT22;10765;50.954;5.322;2023-07-02T03:40:35;15.50;99.90
21216;DHT22;10765;50.954;5.322;2023-07-02T03:43:02;15.50;90.40
21216;DHT22;10765;50.954;5.322;2023-07-02T03:45:29;15.60;99.90
21216;DHT22;10765;50.954;5.322;2023-07-02T03:47:56;15.60;99.90
21216;DHT22;10765;50.954;5.322;2023-07-02T03:50:23;15.60;1.00
21216;DHT22;10765;50.954;5.322;2023-07-02T03:52:50;15.70;1.00
21216;DHT22;10765;50.954;5.322;2023-07-02T03:55:19;15.70;1.00
21216;DHT22;10765;50.954;5.322;2023-07-02T03:57:46;15.70;1.00
21216;DHT22;10765;50.954;5.322;2023-07-02T04:00:13;15.70;1.00
21216;DHT22;10765;50.954;5.322;2023-07-02T04:02:40;15.70;1.00
21216;DHT22;10765;50.954;5.322;2023-07-02T04:05:07;15.60;1.00
21216;DHT22;10765;50.954;5.322;2023-07-02T04:07:34;15.60;79.70
21216;DHT22;10765;50.954;5.322;2023-07-02T04:10:01;15.70;1.00
21216;DHT22;10765;50.954;5.322;2023-07-02T04:12:31;15.80;94.00
21216;DHT22;10765;50.954;5.322;2023-07-02T04:14:58;15.90;1.00
21216;DHT22;10765;50.954;5.322;2023-07-02T04:17:25;15.90;1.00
21216;DHT22;10765;50.954;5.322;2023-07-02T04:19:54;15.90;1.00
21216;DHT22;10765;50.954;5.322;2023-07-02T04:22:21;15.90;99.90
21216;DHT22;10765;50.954;5.322;2023-07-02T04:24:48;15.90;1.00
21216;DHT22;10765;50.954;5.322;2023-07-02T04:27:15;16.00;1.00
21216;DHT22;10765;50.954;5.322;2023-07-02T04:29:44;16.00;99.90
21216;DHT22;10765;50.954;5.322;2023-07-02T04:32:12;15.90;1.00
21216;DHT22;10765;50.954;5.322;2023-07-02T04:34:38;15.80;1.00
21216;DHT22;10765;50.954;5.322;2023-07-02T04:37:08;15.80;1.00
21216;DHT22;10765;50.954;5.322;2023-07-02T04:39:35;15.80;99.90
21216;DHT22;10765;50.954;5.322;2023-07-02T04:42:03;16.00;1.00
21216;DHT22;10765;50.954;5.322;2023-07-02T04:44:30;16.20;1.00
21216;DHT22;10765;50.954;5.322;2023-07-02T04:47:00;16.40;99.90
21216;DHT22;10765;50.954;5.322;2023-07-02T04:49:27;16.70;99.90
21216;DHT22;10765;50.954;5.322;2023-07-02T04:51:54;17.00;1.00
21216;DHT22;10765;50.954;5.322;2023-07-02T04:54:21;17.10;1.00
21216;DHT22;10765;50.954;5.322;2023-07-02T04:56:48;17.10;99.90
21216;DHT22;10765;50.954;5.322;2023-07-02T04:59:15;17.00;99.90
21216;DHT22;10765;50.954;5.322;2023-07-02T05:01:42;17.20;1.00
21216;DHT22;10765;50.954;5.322;2023-07-02T05:04:11;17.20;99.90
21216;DHT22;10765;50.954;5.322;2023-07-02T05:06:38;17.10;99.90
21216;DHT22;10765;50.954;5.322;2023-07-02T05:09:05;17.00;99.90
21216;DHT22;10765;50.954;5.322;2023-07-02T05:11:32;17.00;99.90
21216;DHT22;10765;50.954;5.322;2023-07-02T05:14:02;17.00;99.90
21216;DHT22;10765;50.954;5.322;2023-07-02T05:16:28;17.00;99.90
21216;DHT22;10765;50.954;5.322;2023-07-02T05:18:56;16.80;1.00
21216;DHT22;10765;50.954;5.322;2023-07-02T05:21:24;17.00;1.00
21216;DHT22;10765;50.954;5.322;2023-07-02T05:23:51;17.20;99.90
21216;DHT22;10765;50.954;5.322;2023-07-02T05:26:17;17.40;99.90
21216;DHT22;10765;50.954;5.322;2023-07-02T05:28:44;17.60;99.90
21216;DHT22;10765;50.954;5.322;2023-07-02T05:31:11;17.80;99.90
21216;DHT22;10765;50.954;5.322;2023-07-02T05:33:38;18.00;14.50
21216;DHT22;10765;50.954;5.322;2023-07-02T05:36:05;18.00;1.00
21216;DHT22;10765;50.954;5.322;2023-07-02T05:38:34;18.20;1.00
21216;DHT22;10765;50.954;5.322;2023-07-02T05:41:01;18.00;1.20
21216;DHT22;10765;50.954;5.322;2023-07-02T05:43:28;18.10;17.40
21216;DHT22;10765;50.954;5.322;2023-07-02T05:45:58;18.00;1.00
21216;DHT22;10765;50.954;5.322;2023-07-02T05:48:26;17.90;1.00
21216;DHT22;10765;50.954;5.322;2023-07-02T05:50:53;18.00;90.30
21216;DHT22;10765;50.954;5.322;2023-07-02T05:53:20;18.40;1.00
21216;DHT22;10765;50.954;5.322;2023-07-02T05:55:48;18.30;1.00
21216;DHT22;10765;50.954;5.322;2023-07-02T05:58:15;19.00;1.00
21216;DHT22;10765;50.954;5.322;2023-07-02T06:00:42;19.80;1.00
21216;DHT22;10765;50.954;5.322;2023-07-02T06:03:14;20.20;1.00
21216;DHT22;10765;50.954;5.322;2023-07-02T06:05:46;19.90;1.00
21216;DHT22;10765;50.954;5.322;2023-07-02T06:08:13;19.50;1.00
21216;DHT22;10765;50.954;5.322;2023-07-02T06:10:40;18.90;1.00
21216;DHT22;10765;50.954;5.322;2023-07-02T06:13:09;19.30;1.00
21216;DHT22;10765;50.954;5.322;2023-07-02T06:15:36;19.40;1.00
21216;DHT22;10765;50.954;5.322;2023-07-02T06:18:03;19.20;1.00
21216;DHT22;10765;50.954;5.322;2023-07-02T06:20:30;19.10;1.00
21216;DHT22;10765;50.954;5.322;2023-07-02T06:22:57;19.10;1.00
21216;DHT22;10765;50.954;5.322;2023-07-02T06:25:23;19.20;1.00
21216;DHT22;10765;50.954;5.322;2023-07-02T06:27:50;19.20;1.00
21216;DHT22;10765;50.954;5.322;2023-07-02T06:30:21;19.20;1.00
21216;DHT22;10765;50.954;5.322;2023-07-02T06:32:48;19.30;1.00
21216;DHT22;10765;50.954;5.322;2023-07-02T06:35:15;20.20;1.00
21216;DHT22;10765;50.954;5.322;2023-07-02T06:37:42;21.20;99.90
21216;DHT22;10765;50.954;5.322;2023-07-02T06:40:10;21.30;99.90
21216;DHT22;10765;50.954;5.322;2023-07-02T06:42:37;21.10;99.90
21216;DHT22;10765;50.954;5.322;2023-07-02T06:45:05;20.50;1.00
21216;DHT22;10765;50.954;5.322;2023-07-02T06:47:33;20.30;1.00
21216;DHT22;10765;50.954;5.322;2023-07-02T06:50:00;20.70;1.00
21216;DHT22;10765;50.954;5.322;2023-07-02T06:52:27;21.70;1.00
21216;DHT22;10765;50.954;5.322;2023-07-02T06:54:54;23.00;99.90
21216;DHT22;10765;50.954;5.322;2023-07-02T06:57:21;23.60;99.90
21216;DHT22;10765;50.954;5.322;2023-07-02T06:59:49;23.60;99.90
21216;DHT22;10765;50.954;5.322;2023-07-02T07:02:16;22.50;99.90
21216;DHT22;10765;50.954;5.322;2023-07-02T07:04:45;21.50;99.90
21216;DHT22;10765;50.954;5.322;2023-07-02T07:07:11;21.20;99.90
21216;DHT22;10765;50.954;5.322;2023-07-02T07:09:38;21.50;99.90
21216;DHT22;10765;50.954;5.322;2023-07-02T07:12:06;21.70;99.90
21216;DHT22;10765;50.954;5.322;2023-07-02T07:14:33;21.20;99.90
21216;DHT22;10765;50.954;5.322;2023-07-02T07:17:00;21.00;99.90
21216;DHT22;10765;50.954;5.322;2023-07-02T07:19:27;21.30;99.90
21216;DHT22;10765;50.954;5.322;2023-07-02T07:21:56;21.60;99.90
21216;DHT22;10765;50.954;5.322;2023-07-02T07:24:23;21.70;99.90
21216;DHT22;10765;50.954;5.322;2023-07-02T07:26:50;21.60;99.90
21216;DHT22;10765;50.954;5.322;2023-07-02T07:29:17;21.50;99.90
21216;DHT22;10765;50.954;5.322;2023-07-02T07:31:44;20.90;99.90
21216;DHT22;10765;50.954;5.322;2023-07-02T07:34:11;20.70;99.90
21216;DHT22;10765;50.954;5.322;2023-07-02T07:36:38;20.60;99.90
21216;DHT22;10765;50.954;5.322;2023-07-02T07:39:06;20.80;99.90
21216;DHT22;10765;50.954;5.322;2023-07-02T07:41:33;20.70;99.90
21216;DHT22;10765;50.954;5.322;2023-07-02T07:44:00;20.60;99.90
21216;DHT22;10765;50.954;5.322;2023-07-02T07:46:27;21.20;99.90
21216;DHT22;10765;50.954;5.322;2023-07-02T07:48:54;21.30;99.90
21216;DHT22;10765;50.954;5.322;2023-07-02T07:51:21;21.50;99.90
21216;DHT22;10765;50.954;5.322;2023-07-02T07:53:48;21.40;99.90
21216;DHT22;10765;50.954;5.322;2023-07-02T07:56:16;21.50;99.90
21216;DHT22;10765;50.954;5.322;2023-07-02T07:58:43;21.20;99.90
21216;DHT22;10765;50.954;5.322;2023-07-02T08:01:10;20.40;99.90
21216;DHT22;10765;50.954;5.322;2023-07-02T08:03:37;20.10;99.90
21216;DHT22;10765;50.954;5.322;2023-07-02T08:06:05;20.30;1.00
21216;DHT22;10765;50.954;5.322;2023-07-02T08:08:32;20.20;1.00
21216;DHT22;10765;50.954;5.322;2023-07-02T08:10:59;20.10;99.90
21216;DHT22;10765;50.954;5.322;2023-07-02T08:13:27;20.20;99.90
21216;DHT22;10765;50.954;5.322;2023-07-02T08:15:54;19.90;99.90
21216;DHT22;10765;50.954;5.322;2023-07-02T08:18:21;19.40;99.90
21216;DHT22;10765;50.954;5.322;2023-07-02T08:20:48;19.50;99.90
21216;DHT22;10765;50.954;5.322;2023-07-02T08:23:15;20.90;99.90
21216;DHT22;10765;50.954;5.322;2023-07-02T08:25:41;20.90;99.90
21216;DHT22;10765;50.954;5.322;2023-07-02T08:28:08;21.20;99.90
21216;DHT22;10765;50.954;5.322;2023-07-02T08:30:37;22.00;99.90
21216;DHT22;10765;50.954;5.322;2023-07-02T08:33:03;23.10;99.90
21216;DHT22;10765;50.954;5.322;2023-07-02T08:35:30;25.40;99.90
21216;DHT22;10765;50.954;5.322;2023-07-02T08:37:57;24.20;99.90
21216;DHT22;10765;50.954;5.322;2023-07-02T08:40:24;23.30;99.90
21216;DHT22;10765;50.954;5.322;2023-07-02T08:42:51;23.80;99.90
21216;DHT22;10765;50.954;5.322;2023-07-02T08:45:18;24.10;99.90
21216;DHT22;10765;50.954;5.322;2023-07-02T08:47:48;25.00;99.90
21216;DHT22;10765;50.954;5.322;2023-07-02T08:50:16;23.10;99.90
21216;DHT22;10765;50.954;5.322;2023-07-02T08:52:43;23.60;99.90
21216;DHT22;10765;50.954;5.322;2023-07-02T08:55:10;23.30;99.90
21216;DHT22;10765;50.954;5.322;2023-07-02T08:57:38;24.80;99.90
21216;DHT22;10765;50.954;5.322;2023-07-02T09:00:08;23.80;99.90
21216;DHT22;10765;50.954;5.322;2023-07-02T09:02:36;23.10;99.90
21216;DHT22;10765;50.954;5.322;2023-07-02T09:05:05;23.00;99.90
21216;DHT22;10765;50.954;5.322;2023-07-02T09:07:32;22.40;99.90
21216;DHT22;10765;50.954;5.322;2023-07-02T09:09:59;21.80;99.90
21216;DHT22;10765;50.954;5.322;2023-07-02T09:12:27;21.60;99.90
21216;DHT22;10765;50.954;5.322;2023-07-02T09:14:55;23.30;99.90
21216;DHT22;10765;50.954;5.322;2023-07-02T09:17:27;25.80;99.90
21216;DHT22;10765;50.954;5.322;2023-07-02T09:19:54;25.60;99.90
21216;DHT22;10765;50.954;5.322;2023-07-02T09:22:23;25.60;99.90
21216;DHT22;10765;50.954;5.322;2023-07-02T09:24:54;26.00;99.90
21216;DHT22;10765;50.954;5.322;2023-07-02T09:27:33;26.10;99.90
21216;DHT22;10765;50.954;5.322;2023-07-02T09:30:06;27.70;99.90
21216;DHT22;10765;50.954;5.322;2023-07-02T09:32:33;28.90;99.90
21216;DHT22;10765;50.954;5.322;2023-07-02T09:35:01;29.90;99.90
21216;DHT22;10765;50.954;5.322;2023-07-02T09:37:29;28.90;99.90
21216;DHT22;10765;50.954;5.322;2023-07-02T09:39:56;28.70;99.90
21216;DHT22;10765;50.954;5.322;2023-07-02T09:42:25;28.50;99.90
21216;DHT22;10765;50.954;5.322;2023-07-02T09:44:52;28.10;99.90
21216;DHT22;10765;50.954;5.322;2023-07-02T09:47:22;28.60;99.90
21216;DHT22;10765;50.954;5.322;2023-07-02T09:49:52;28.10;99.90
21216;DHT22;10765;50.954;5.322;2023-07-02T09:52:20;25.80;99.90
21216;DHT22;10765;50.954;5.322;2023-07-02T09:54:49;26.10;99.90
21216;DHT22;10765;50.954;5.322;2023-07-02T09:57:16;26.70;99.90
21216;DHT22;10765;50.954;5.322;2023-07-02T09:59:43;26.60;99.90
21216;DHT22;10765;50.954;5.322;2023-07-02T10:02:10;25.90;99.90
21216;DHT22;10765;50.954;5.322;2023-07-02T10:04:41;26.30;99.90
21216;DHT22;10765;50.954;5.322;2023-07-02T10:07:09;25.70;99.90
21216;DHT22;10765;50.954;5.322;2023-07-02T10:09:37;25.70;99.90
21216;DHT22;10765;50.954;5.322;2023-07-02T10:12:17;27.90;99.90
21216;DHT22;10765;50.954;5.322;2023-07-02T10:14:45;28.10;99.90
21216;DHT22;10765;50.954;5.322;2023-07-02T10:17:23;29.00;99.90
21216;DHT22;10765;50.954;5.322;2023-07-02T10:19:50;26.30;99.90
21216;DHT22;10765;50.954;5.322;2023-07-02T10:22:18;26.00;99.90
21216;DHT22;10765;50.954;5.322;2023-07-02T10:24:51;26.80;99.90
21216;DHT22;10765;50.954;5.322;2023-07-02T10:27:20;25.20;99.90
21216;DHT22;10765;50.954;5.322;2023-07-02T10:29:59;25.30;99.90
21216;DHT22;10765;50.954;5.322;2023-07-02T10:32:26;25.30;99.90
21216;DHT22;10765;50.954;5.322;2023-07-02T10:34:54;24.60;99.90
21216;DHT22;10765;50.954;5.322;2023-07-02T10:37:21;25.00;99.90
21216;DHT22;10765;50.954;5.322;2023-07-02T10:39:48;27.40;99.90
21216;DHT22;10765;50.954;5.322;2023-07-02T10:42:17;27.30;99.90
21216;DHT22;10765;50.954;5.322;2023-07-02T10:44:50;27.50;99.90
21216;DHT22;10765;50.954;5.322;2023-07-02T10:47:17;27.80;99.90
21216;DHT22;10765;50.954;5.322;2023-07-02T10:49:44;30.20;99.90
21216;DHT22;10765;50.954;5.322;2023-07-02T10:52:11;29.30;99.90
21216;DHT22;10765;50.954;5.322;2023-07-02T10:54:39;27.10;99.90
21216;DHT22;10765;50.954;5.322;2023-07-02T10:57:07;24.90;99.90
21216;DHT22;10765;50.954;5.322;2023-07-02T10:59:34;24.90;99.90
21216;DHT22;10765;50.954;5.322;2023-07-02T11:02:02;28.20;99.90
21216;DHT22;10765;50.954;5.322;2023-07-02T11:04:29;29.60;99.90
21216;DHT22;10765;50.954;5.322;2023-07-02T11:06:57;30.00;99.90
21216;DHT22;10765;50.954;5.322;2023-07-02T11:09:24;28.60;99.90
21216;DHT22;10765;50.954;5.322;2023-07-02T11:11:55;27.40;99.90
21216;DHT22;10765;50.954;5.322;2023-07-02T11:14:30;27.00;99.90
21216;DHT22;10765;50.954;5.322;2023-07-02T11:16:58;25.30;99.90
21216;DHT22;10765;50.954;5.322;2023-07-02T11:19:26;25.90;99.90
21216;DHT22;10765;50.954;5.322;2023-07-02T11:21:54;25.80;99.90
21216;DHT22;10765;50.954;5.322;2023-07-02T11:24:31;25.20;99.90
21216;DHT22;10765;50.954;5.322;2023-07-02T11:26:58;24.00;99.90
21216;DHT22;10765;50.954;5.322;2023-07-02T11:29:27;23.70;99.90
21216;DHT22;10765;50.954;5.322;2023-07-02T11:31:54;23.50;99.90
21216;DHT22;10765;50.954;5.322;2023-07-02T11:34:22;23.60;99.90
21216;DHT22;10765;50.954;5.322;2023-07-02T11:36:50;23.30;99.90
21216;DHT22;10765;50.954;5.322;2023-07-02T11:39:19;23.30;99.90
21216;DHT22;10765;50.954;5.322;2023-07-02T11:41:47;22.90;99.90
21216;DHT22;10765;50.954;5.322;2023-07-02T11:44:16;22.30;99.90
21216;DHT22;10765;50.954;5.322;2023-07-02T11:46:42;22.60;99.90
21216;DHT22;10765;50.954;5.322;2023-07-02T11:49:09;22.80;99.90
21216;DHT22;10765;50.954;5.322;2023-07-02T11:51:37;23.30;99.90
21216;DHT22;10765;50.954;5.322;2023-07-02T11:54:06;25.50;99.90
21216;DHT22;10765;50.954;5.322;2023-07-02T11:56:33;27.10;99.90
21216;DHT22;10765;50.954;5.322;2023-07-02T11:59:00;26.00;99.90
21216;DHT22;10765;50.954;5.322;2023-07-02T12:01:27;24.20;99.90
21216;DHT22;10765;50.954;5.322;2023-07-02T12:03:54;23.30;99.90
21216;DHT22;10765;50.954;5.322;2023-07-02T12:06:21;24.00;99.90
21216;DHT22;10765;50.954;5.322;2023-07-02T12:08:48;24.90;99.90
21216;DHT22;10765;50.954;5.322;2023-07-02T12:11:16;24.60;99.90
21216;DHT22;10765;50.954;5.322;2023-07-02T12:13:43;23.60;99.90
21216;DHT22;10765;50.954;5.322;2023-07-02T12:16:10;23.60;99.90
21216;DHT22;10765;50.954;5.322;2023-07-02T12:18:37;23.90;99.90
21216;DHT22;10765;50.954;5.322;2023-07-02T12:21:04;23.90;99.90
21216;DHT22;10765;50.954;5.322;2023-07-02T12:23:30;24.30;99.90
21216;DHT22;10765;50.954;5.322;2023-07-02T12:25:57;23.70;99.90
21216;DHT22;10765;50.954;5.322;2023-07-02T12:28:26;23.40;99.90
21216;DHT22;10765;50.954;5.322;2023-07-02T12:30:52;23.00;99.90
21216;DHT22;10765;50.954;5.322;2023-07-02T12:33:19;23.80;99.90
21216;DHT22;10765;50.954;5.322;2023-07-02T12:35:46;25.70;99.90
21216;DHT22;10765;50.954;5.322;2023-07-02T12:38:13;25.90;99.90
21216;DHT22;10765;50.954;5.322;2023-07-02T12:40:40;25.80;99.90
21216;DHT22;10765;50.954;5.322;2023-07-02T12:43:07;26.70;99.90
21216;DHT22;10765;50.954;5.322;2023-07-02T12:45:35;26.50;99.90
21216;DHT22;10765;50.954;5.322;2023-07-02T12:48:02;26.00;99.90
21216;DHT22;10765;50.954;5.322;2023-07-02T12:50:29;26.50;99.90
21216;DHT22;10765;50.954;5.322;2023-07-02T12:52:56;30.40;99.90
21216;DHT22;10765;50.954;5.322;2023-07-02T12:55:23;31.10;99.90
21216;DHT22;10765;50.954;5.322;2023-07-02T12:57:50;29.10;99.90
21216;DHT22;10765;50.954;5.322;2023-07-02T13:00:17;26.50;99.90
21216;DHT22;10765;50.954;5.322;2023-07-02T13:02:46;25.00;99.90
21216;DHT22;10765;50.954;5.322;2023-07-02T13:05:13;24.00;99.90
21216;DHT22;10765;50.954;5.322;2023-07-02T13:07:40;23.20;99.90
21216;DHT22;10765;50.954;5.322;2023-07-02T13:10:07;23.50;99.90
21216;DHT22;10765;50.954;5.322;2023-07-02T13:12:34;24.60;99.90
21216;DHT22;10765;50.954;5.322;2023-07-02T13:15:01;26.30;99.90
21216;DHT22;10765;50.954;5.322;2023-07-02T13:17:28;26.20;99.90
21216;DHT22;10765;50.954;5.322;2023-07-02T13:19:56;26.70;99.90
21216;DHT22;10765;50.954;5.322;2023-07-02T13:22:23;28.90;99.90
21216;DHT22;10765;50.954;5.322;2023-07-02T13:24:50;29.70;99.90
21216;DHT22;10765;50.954;5.322;2023-07-02T13:27:17;29.50;99.90
21216;DHT22;10765;50.954;5.322;2023-07-02T13:29:45;31.60;99.90
21216;DHT22;10765;50.954;5.322;2023-07-02T13:32:11;30.20;99.90
21216;DHT22;10765;50.954;5.322;2023-07-02T13:34:38;30.10;99.90
21216;DHT22;10765;50.954;5.322;2023-07-02T13:37:08;30.90;99.90
21216;DHT22;10765;50.954;5.322;2023-07-02T13:39:35;28.00;99.90
21216;DHT22;10765;50.954;5.322;2023-07-02T13:42:02;27.00;99.90
21216;DHT22;10765;50.954;5.322;2023-07-02T13:44:28;27.00;99.90
21216;DHT22;10765;50.954;5.322;2023-07-02T13:46:56;26.40;99.90
21216;DHT22;10765;50.954;5.322;2023-07-02T13:49:22;25.50;99.90
21216;DHT22;10765;50.954;5.322;2023-07-02T13:51:49;24.50;99.90
21216;DHT22;10765;50.954;5.322;2023-07-02T13:54:18;24.20;99.90
21216;DHT22;10765;50.954;5.322;2023-07-02T13:56:46;24.40;99.90
21216;DHT22;10765;50.954;5.322;2023-07-02T13:59:17;25.50;99.90
21216;DHT22;10765;50.954;5.322;2023-07-02T14:01:45;25.60;99.90
21216;DHT22;10765;50.954;5.322;2023-07-02T14:04:15;26.00;99.90
21216;DHT22;10765;50.954;5.322;2023-07-02T14:06:42;26.30;99.90
21216;DHT22;10765;50.954;5.322;2023-07-02T14:09:09;26.30;99.90
21216;DHT22;10765;50.954;5.322;2023-07-02T14:11:39;26.10;99.90
21216;DHT22;10765;50.954;5.322;2023-07-02T14:14:06;25.50;99.90
21216;DHT22;10765;50.954;5.322;2023-07-02T14:16:35;25.20;99.90
21216;DHT22;10765;50.954;5.322;2023-07-02T14:19:02;25.10;99.90
21216;DHT22;10765;50.954;5.322;2023-07-02T14:21:29;24.80;99.90
21216;DHT22;10765;50.954;5.322;2023-07-02T14:23:56;24.30;99.90
21216;DHT22;10765;50.954;5.322;2023-07-02T14:26:23;24.20;99.90
21216;DHT22;10765;50.954;5.322;2023-07-02T14:28:50;23.90;99.90
21216;DHT22;10765;50.954;5.322;2023-07-02T14:31:17;24.20;99.90
21216;DHT22;10765;50.954;5.322;2023-07-02T14:33:45;24.00;99.90
21216;DHT22;10765;50.954;5.322;2023-07-02T14:36:12;24.50;99.90
21216;DHT22;10765;50.954;5.322;2023-07-02T14:38:39;24.80;99.90
21216;DHT22;10765;50.954;5.322;2023-07-02T14:41:06;24.90;99.90
21216;DHT22;10765;50.954;5.322;2023-07-02T14:43:33;24.90;99.90
21216;DHT22;10765;50.954;5.322;2023-07-02T14:46:02;24.00;99.90
21216;DHT22;10765;50.954;5.322;2023-07-02T14:48:29;23.80;99.90
21216;DHT22;10765;50.954;5.322;2023-07-02T14:51:00;24.20;99.90
21216;DHT22;10765;50.954;5.322;2023-07-02T14:53:28;24.90;99.90
21216;DHT22;10765;50.954;5.322;2023-07-02T14:55:56;25.00;99.90
21216;DHT22;10765;50.954;5.322;2023-07-02T14:58:25;25.10;99.90
21216;DHT22;10765;50.954;5.322;2023-07-02T15:00:55;24.50;99.90
21216;DHT22;10765;50.954;5.322;2023-07-02T15:03:23;24.40;99.90
21216;DHT22;10765;50.954;5.322;2023-07-02T15:05:52;24.50;99.90
21216;DHT22;10765;50.954;5.322;2023-07-02T15:08:20;24.30;99.90
21216;DHT22;10765;50.954;5.322;2023-07-02T15:10:49;23.90;99.90
21216;DHT22;10765;50.954;5.322;2023-07-02T15:13:17;24.10;99.90
21216;DHT22;10765;50.954;5.322;2023-07-02T15:15:45;24.50;99.90
21216;DHT22;10765;50.954;5.322;2023-07-02T15:18:12;24.90;99.90
21216;DHT22;10765;50.954;5.322;2023-07-02T15:20:40;24.70;99.90
21216;DHT22;10765;50.954;5.322;2023-07-02T15:23:09;24.30;99.90
21216;DHT22;10765;50.954;5.322;2023-07-02T15:25:37;24.30;99.90
21216;DHT22;10765;50.954;5.322;2023-07-02T15:28:05;24.20;99.90
21216;DHT22;10765;50.954;5.322;2023-07-02T15:30:31;24.00;99.90
21216;DHT22;10765;50.954;5.322;2023-07-02T15:32:58;24.10;99.90
21216;DHT22;10765;50.954;5.322;2023-07-02T15:35:25;24.00;99.90
21216;DHT22;10765;50.954;5.322;2023-07-02T15:37:52;23.90;99.90